Aérodrome :
LOGIN :

S'inscrire | Disclaimer

   EN    FR    IT 

 










Légende :    VFR   VFR Marginal   IFR   IFR Intensif   IFR Très Intensif
Visi : 
Plafond : 
>= 8 km
>= 3000ft
5 à 8 km
1000 à 3000 ft
1500m à 5 km
500 à 1000 ft
800 à 1500m
200 à 500 ft
< 800m
< 200 ft
Symboles :   Orages  Brouillard  Fortes neiges  Fortes précipitations  Vent > 20 kt
SIGMETs :   Divers  Orages  Givrage  Turbulence  Onde Orograph.  Cendres Volcan.






- Altitude de l'aérodrome : 512 ft
- Code IATA : URO


LFOP - Rouen Vallée de Seine

DERNIER METAR :
  • 182230Z AUTO 19013KT 9999 BKN025 OVC031 05/04 Q1020

METARs EXPIRÉS :
  • 182200Z AUTO 19013KT 9999 SCT025 BKN037 OVC043 04/03 Q1020
  • 182130Z AUTO 20012KT 9999 BKN041 BKN190 04/03 Q1021
  • 182100Z AUTO 20011KT 9999 FEW038 BKN180 OVC220 04/03 Q1021 TEMPO 4000 RA OVC004
  • 182030Z AUTO 21013KT 9999 SCT032 BKN040 BKN048 04/02 Q1021 TEMPO 4000 RA OVC004
  • 182000Z AUTO 21013KT 9999 BKN034 OVC058 04/02 Q1022 TEMPO 4000 RA OVC004

TAF TAF LFOP
Valide du 18 à 18h jusqu'au 19 à 18h UTC


181700Z 1818/1918 20005KT 9999 BKN040
BECMG 1819/1821 20015KT BKN007 OVC015
TEMPO 1821/1909 4000 RA OVC004
BECMG 1913/1916 BKN013
ATIS : +33 2 35 80 80 34
Météo : +33 2 32 86 52 80



MET'MAP, la Météo Aéronautique d'un coup d'oeil ! - Copyright ORBIFLY Décembre 2007 - Disclaimer

ORBIFLY MET'MAP TEAM :

Programmation & Développement : Alexandra Zaïnal
Sur une idée originale de : Baudouin d'Aumeries
Assistance à la programmation : Marc-Olivier Méhu
Soutien technique & logistique : Manuel Goepfert

Contact : metmap@orbifly.com




SOURCES & CREDITS :

   NOAA